Time;durP1;ratioP1;P1;durP2;ratioP2;P2;SDS_P1;SDS_P2;PMS_P1;PMS_P2;Temp;Humidity;BMP_temperature;BMP_pressure;BME280_temperature;BME280_humidity;BME280_pressure;Samples;Min_cycle;Max_cycle;Signal;HPM_P1;HPM_P2
2023/02/21 02:14:19;;;;;;;29.60;20.50;;;;;;;;;;4952821;29;20232;-79
2023/02/21 02:16:50;;;;;;;28.37;20.43;;;;;;;;;;4953463;28;20205;-79
2023/02/21 02:19:35;;;;;;;29.53;20.50;;;;;;;;;;4953255;28;20738;-79
2023/02/21 02:22:26;;;;;;;31.40;21.53;;;;;;;;;;4856391;29;20241;-79
2023/02/21 02:25:08;;;;;;;27.83;20.23;;;;;;;;;;4856970;29;20288;-79
2023/02/21 02:27:45;;;;;;;27.07;20.57;;;;;;;;;;4854997;29;20312;-79
2023/02/21 02:30:31;;;;;;;30.47;21.27;;;;;;;;;;4856798;29;20299;-79
2023/02/21 02:33:20;;;;;;;27.70;19.73;;;;;;;;;;4856671;29;20296;-79
2023/02/21 02:35:50;;;;;;;27.57;19.53;;;;;;;;;;4856541;29;20206;-79
2023/02/21 02:38:22;;;;;;;26.77;19.60;;;;;;;;;;4856711;29;20686;-78
2023/02/21 02:40:52;;;;;;;27.10;19.57;;;;;;;;;;4856936;29;20282;-79
2023/02/21 02:43:22;;;;;;;26.60;18.87;;;;;;;;;;4853864;29;20243;-78
2023/02/21 02:45:52;;;;;;;26.40;19.43;;;;;;;;;;4856208;29;20349;-79
2023/02/21 02:48:21;;;;;;;25.40;19.17;;;;;;;;;;4857118;29;20217;-79
2023/02/21 02:50:51;;;;;;;23.97;17.90;;;;;;;;;;4856460;29;20236;-78
2023/02/21 02:53:20;;;;;;;25.47;17.90;;;;;;;;;;4856420;29;20707;-80
2023/02/21 02:55:49;;;;;;;27.77;18.63;;;;;;;;;;4856220;29;20229;-79
2023/02/21 02:58:17;;;;;;;26.00;17.80;;;;;;;;;;4866072;29;20685;-79
2023/02/21 03:00:46;;;;;;;25.73;18.83;;;;;;;;;;4952822;29;20232;-79
2023/02/21 03:03:25;;;;;;;25.30;17.77;;;;;;;;;;4952933;28;20312;-81
2023/02/21 03:06:01;;;;;;;24.33;17.53;;;;;;;;;;4954961;28;20287;-79
2023/02/21 03:08:33;;;;;;;25.80;18.50;;;;;;;;;;4956052;29;20260;-80
2023/02/21 03:11:03;;;;;;;24.67;18.00;;;;;;;;;;4955887;29;20202;-79
2023/02/21 03:13:38;;;;;;;22.93;17.17;;;;;;;;;;4956379;28;20329;-79
2023/02/21 03:16:10;;;;;;;26.37;18.13;;;;;;;;;;4955993;29;20278;-79
2023/02/21 03:18:40;;;;;;;23.73;17.20;;;;;;;;;;4956616;29;20206;-79
2023/02/21 03:21:10;;;;;;;23.27;16.33;;;;;;;;;;4956112;29;20200;-79
2023/02/21 03:23:38;;;;;;;21.60;15.97;;;;;;;;;;4956233;29;20205;-79
2023/02/21 03:26:06;;;;;;;24.47;17.63;;;;;;;;;;4955994;29;20223;-79
2023/02/21 03:28:34;;;;;;;24.87;17.63;;;;;;;;;;4956399;29;20293;-79
2023/02/21 03:31:03;;;;;;;25.83;18.37;;;;;;;;;;4956100;29;20248;-79
2023/02/21 03:33:31;;;;;;;25.90;17.43;;;;;;;;;;4955955;29;20237;-79
2023/02/21 03:36:00;;;;;;;25.67;17.90;;;;;;;;;;4955718;28;20228;-79
2023/02/21 03:38:29;;;;;;;29.70;20.70;;;;;;;;;;4955884;29;20227;-79
2023/02/21 03:40:57;;;;;;;30.73;22.10;;;;;;;;;;4955630;28;20283;-79
2023/02/21 03:43:24;;;;;;;28.73;19.83;;;;;;;;;;4955507;28;20314;-80
2023/02/21 03:45:51;;;;;;;27.50;18.70;;;;;;;;;;4955838;29;20320;-80
2023/02/21 03:48:18;;;;;;;24.83;17.10;;;;;;;;;;4955632;29;20729;-80
2023/02/21 03:50:45;;;;;;;24.80;16.63;;;;;;;;;;4955577;29;20209;-79
2023/02/21 03:53:13;;;;;;;23.60;16.20;;;;;;;;;;4955217;28;20784;-79
2023/02/21 03:55:41;;;;;;;22.83;16.27;;;;;;;;;;4955083;29;20634;-79
2023/02/21 03:58:09;;;;;;;24.33;16.20;;;;;;;;;;4955455;28;20204;-79
2023/02/21 04:00:36;;;;;;;25.50;17.30;;;;;;;;;;4955403;28;20297;-79
2023/02/21 04:03:03;;;;;;;25.53;16.60;;;;;;;;;;4955281;29;20289;-78
2023/02/21 04:05:30;;;;;;;26.67;18.23;;;;;;;;;;4955220;29;20682;-80
2023/02/21 04:07:57;;;;;;;25.57;17.23;;;;;;;;;;4955248;29;20253;-79
2023/02/21 04:10:25;;;;;;;25.63;17.37;;;;;;;;;;4955126;28;20310;-79
2023/02/21 04:12:53;;;;;;;24.77;16.77;;;;;;;;;;4955122;28;20264;-79
2023/02/21 04:15:20;;;;;;;25.30;16.90;;;;;;;;;;4955261;28;20225;-79
2023/02/21 04:17:48;;;;;;;23.57;16.40;;;;;;;;;;4954241;28;20225;-79
2023/02/21 04:20:15;;;;;;;24.67;17.13;;;;;;;;;;4955125;29;20231;-79
2023/02/21 04:22:42;;;;;;;24.00;16.77;;;;;;;;;;4954437;29;20242;-79
2023/02/21 04:25:10;;;;;;;24.33;15.97;;;;;;;;;;4954793;29;20294;-79
2023/02/21 04:27:37;;;;;;;24.30;16.50;;;;;;;;;;4955141;29;20201;-80
2023/02/21 04:30:06;;;;;;;23.20;16.57;;;;;;;;;;4954574;29;20740;-79
2023/02/21 04:32:33;;;;;;;24.53;16.57;;;;;;;;;;4954350;28;20299;-79
2023/02/21 04:35:01;;;;;;;24.80;17.10;;;;;;;;;;4954875;29;20719;-80
2023/02/21 04:37:28;;;;;;;26.07;17.90;;;;;;;;;;4954693;29;20247;-79
2023/02/21 04:39:55;;;;;;;24.20;16.60;;;;;;;;;;4955131;29;20302;-79
2023/02/21 04:42:22;;;;;;;27.37;18.53;;;;;;;;;;4954759;29;20200;-80
2023/02/21 04:44:49;;;;;;;30.07;19.13;;;;;;;;;;4954548;29;20240;-80
2023/02/21 04:47:18;;;;;;;25.97;17.90;;;;;;;;;;4954216;29;20254;-78
2023/02/21 04:49:50;;;;;;;27.80;19.60;;;;;;;;;;4954671;28;20374;-79
2023/02/21 04:52:18;;;;;;;26.27;18.50;;;;;;;;;;4954073;29;20200;-79
2023/02/21 04:54:46;;;;;;;26.47;17.97;;;;;;;;;;4954531;29;20235;-79
2023/02/21 04:57:13;;;;;;;22.10;17.07;;;;;;;;;;4954144;28;20675;-80
2023/02/21 04:59:40;;;;;;;27.13;17.83;;;;;;;;;;4954525;29;20312;-78
2023/02/21 05:02:08;;;;;;;23.03;16.60;;;;;;;;;;4954088;29;20288;-79
2023/02/21 05:04:36;;;;;;;23.40;16.07;;;;;;;;;;4954328;29;20227;-79
2023/02/21 05:07:03;;;;;;;25.70;16.63;;;;;;;;;;4953881;29;20295;-79
2023/02/21 05:09:31;;;;;;;21.90;15.37;;;;;;;;;;4954330;29;20620;-79
2023/02/21 05:11:58;;;;;;;22.87;15.70;;;;;;;;;;4954202;28;20239;-79
2023/02/21 05:14:25;;;;;;;24.00;15.70;;;;;;;;;;4954108;28;20318;-79
2023/02/21 05:16:52;;;;;;;21.03;14.83;;;;;;;;;;4954206;28;20302;-79
2023/02/21 05:19:26;;;;;;;23.07;14.93;;;;;;;;;;4954067;29;20290;-79
2023/02/21 05:21:56;;;;;;;23.50;15.73;;;;;;;;;;4953664;28;20210;-80
2023/02/21 05:24:23;;;;;;;23.20;15.67;;;;;;;;;;4953946;28;20206;-79
2023/02/21 05:26:50;;;;;;;24.43;15.77;;;;;;;;;;4953528;28;20718;-78
2023/02/21 05:29:18;;;;;;;25.67;15.93;;;;;;;;;;4953852;28;20663;-79
2023/02/21 05:31:45;;;;;;;24.13;15.70;;;;;;;;;;4953852;29;20294;-78
2023/02/21 05:34:12;;;;;;;23.37;15.30;;;;;;;;;;4953797;29;20317;-79
2023/02/21 05:36:40;;;;;;;25.57;15.93;;;;;;;;;;4953135;29;20295;-79
2023/02/21 05:39:09;;;;;;;24.13;16.40;;;;;;;;;;4953963;29;20302;-78
2023/02/21 05:41:36;;;;;;;23.97;16.20;;;;;;;;;;4954153;28;20687;-79
2023/02/21 05:44:04;;;;;;;23.83;16.37;;;;;;;;;;4953753;28;20285;-79
2023/02/21 05:46:32;;;;;;;26.73;17.13;;;;;;;;;;4953536;29;20281;-79
2023/02/21 05:49:00;;;;;;;25.80;16.90;;;;;;;;;;4953988;29;20351;-78
2023/02/21 05:51:28;;;;;;;28.60;16.80;;;;;;;;;;4953086;28;20203;-79
2023/02/21 05:53:55;;;;;;;27.30;18.43;;;;;;;;;;4953377;29;20649;-78
2023/02/21 05:56:24;;;;;;;37.67;22.37;;;;;;;;;;4953290;28;20246;-78
2023/02/21 05:58:51;;;;;;;33.03;22.67;;;;;;;;;;4953478;28;20286;-78
2023/02/21 06:01:18;;;;;;;37.20;23.60;;;;;;;;;;4953577;29;20288;-79
2023/02/21 06:03:45;;;;;;;41.67;25.27;;;;;;;;;;4953340;28;20198;-79
2023/02/21 06:06:15;;;;;;;32.60;21.27;;;;;;;;;;4952994;29;20742;-78
2023/02/21 06:08:46;;;;;;;28.77;17.73;;;;;;;;;;4953477;28;20293;-78
2023/02/21 06:11:13;;;;;;;27.10;16.47;;;;;;;;;;4953338;28;20251;-79
2023/02/21 06:13:42;;;;;;;23.40;15.87;;;;;;;;;;4953058;29;20328;-78
2023/02/21 06:16:09;;;;;;;22.87;15.90;;;;;;;;;;4953376;28;20624;-79
2023/02/21 06:18:36;;;;;;;24.07;16.63;;;;;;;;;;4953560;29;20236;-79
2023/02/21 06:21:03;;;;;;;24.93;16.50;;;;;;;;;;4953405;28;20260;-78
2023/02/21 06:23:31;;;;;;;22.30;16.27;;;;;;;;;;4953345;28;20233;-79
2023/02/21 06:25:58;;;;;;;23.67;15.50;;;;;;;;;;4953506;28;20226;-78
2023/02/21 06:28:28;;;;;;;23.63;15.40;;;;;;;;;;4952998;29;20238;-80
2023/02/21 06:30:57;;;;;;;28.07;16.27;;;;;;;;;;4953009;28;20290;-79
2023/02/21 06:33:25;;;;;;;27.80;16.40;;;;;;;;;;4952390;28;20605;-78
2023/02/21 06:35:52;;;;;;;24.77;16.10;;;;;;;;;;4953350;29;20369;-79
2023/02/21 06:38:19;;;;;;;26.13;16.33;;;;;;;;;;4952972;29;20883;-78
2023/02/21 06:40:47;;;;;;;24.07;15.83;;;;;;;;;;4954999;28;20231;-79
2023/02/21 06:43:15;;;;;;;27.73;16.87;;;;;;;;;;4957089;28;20284;-78
2023/02/21 06:45:42;;;;;;;30.00;15.43;;;;;;;;;;4956755;28;20286;-79
2023/02/21 06:48:14;;;;;;;24.50;16.27;;;;;;;;;;4956251;29;20696;-79
2023/02/21 06:50:41;;;;;;;26.90;16.77;;;;;;;;;;4956594;29;20208;-79
2023/02/21 06:53:09;;;;;;;23.63;16.00;;;;;;;;;;4956456;29;20232;-79
2023/02/21 06:55:36;;;;;;;25.00;16.87;;;;;;;;;;4957126;29;20198;-78
2023/02/21 06:58:04;;;;;;;26.07;16.40;;;;;;;;;;4956351;29;20295;-78
2023/02/21 07:00:31;;;;;;;25.43;16.70;;;;;;;;;;4956150;29;20199;-79
2023/02/21 07:02:58;;;;;;;25.03;15.43;;;;;;;;;;4956701;28;20287;-78
2023/02/21 07:05:27;;;;;;;22.83;14.67;;;;;;;;;;4956523;29;20291;-79
2023/02/21 07:07:55;;;;;;;21.97;14.10;;;;;;;;;;4956266;29;20203;-79
2023/02/21 07:10:22;;;;;;;22.27;15.50;;;;;;;;;;4956291;29;20263;-79
2023/02/21 07:12:49;;;;;;;24.33;16.40;;;;;;;;;;4956281;28;20212;-78
2023/02/21 07:15:16;;;;;;;29.23;17.57;;;;;;;;;;4956094;29;20271;-79
2023/02/21 07:17:43;;;;;;;43.53;29.00;;;;;;;;;;4955740;29;20223;-79
2023/02/21 07:20:11;;;;;;;30.20;20.67;;;;;;;;;;4956448;28;20290;-79
2023/02/21 07:22:39;;;;;;;26.37;17.80;;;;;;;;;;4956105;29;20235;-79
2023/02/21 07:25:07;;;;;;;23.33;16.40;;;;;;;;;;4956160;28;20236;-79
2023/02/21 07:27:34;;;;;;;26.27;16.97;;;;;;;;;;4955946;29;20298;-77
2023/02/21 07:30:01;;;;;;;25.20;17.33;;;;;;;;;;4955855;28;20299;-79
2023/02/21 07:32:28;;;;;;;29.23;19.27;;;;;;;;;;4955636;29;20299;-78
2023/02/21 07:34:55;;;;;;;31.33;20.20;;;;;;;;;;4955913;29;20272;-79
2023/02/21 07:37:23;;;;;;;34.00;19.57;;;;;;;;;;4955929;29;20200;-79
2023/02/21 07:39:51;;;;;;;27.73;18.20;;;;;;;;;;4956001;29;20240;-79
2023/02/21 07:42:18;;;;;;;28.40;17.80;;;;;;;;;;4955640;29;20223;-79
2023/02/21 07:44:46;;;;;;;29.20;18.53;;;;;;;;;;4955530;29;20230;-79
2023/02/21 07:47:14;;;;;;;30.90;18.73;;;;;;;;;;4955176;29;20233;-79
2023/02/21 07:49:41;;;;;;;31.17;18.47;;;;;;;;;;4938773;29;20591;-79
2023/02/21 07:52:09;;;;;;;25.33;16.90;;;;;;;;;;4938175;28;20203;-79
2023/02/21 07:54:36;;;;;;;24.47;16.70;;;;;;;;;;4955476;28;20329;-79
2023/02/21 07:57:06;;;;;;;27.43;17.43;;;;;;;;;;4938401;29;20212;-79
2023/02/21 07:59:33;;;;;;;29.53;16.43;;;;;;;;;;4955633;29;20200;-79
2023/02/21 08:02:01;;;;;;;26.10;17.27;;;;;;;;;;4955005;29;20258;-79
2023/02/21 08:04:28;;;;;;;28.47;17.93;;;;;;;;;;4955340;28;20580;-79
2023/02/21 08:06:59;;;;;;;29.23;20.17;;;;;;;;;;4955665;29;20219;-79
2023/02/21 08:09:26;;;;;;;30.17;19.20;;;;;;;;;;4954940;28;20684;-79
2023/02/21 08:11:53;;;;;;;26.10;18.57;;;;;;;;;;4955070;28;20223;-80
2023/02/21 08:14:22;;;;;;;30.20;20.03;;;;;;;;;;4955260;28;20262;-79
2023/02/21 08:16:49;;;;;;;28.60;19.70;;;;;;;;;;4955119;29;20199;-80
2023/02/21 08:19:16;;;;;;;58.77;40.57;;;;;;;;;;4955089;28;20237;-80
2023/02/21 08:21:45;;;;;;;31.60;22.37;;;;;;;;;;4955191;28;20238;-79
2023/02/21 08:24:13;;;;;;;29.80;22.17;;;;;;;;;;4955280;29;20203;-79
2023/02/21 08:26:40;;;;;;;28.43;20.37;;;;;;;;;;4954620;29;20879;-80
2023/02/21 08:29:08;;;;;;;19.27;13.07;;;;;;;;;;4954429;29;20671;-79
2023/02/21 08:31:37;;;;;;;17.70;12.00;;;;;;;;;;4955326;28;20286;-80
2023/02/21 08:34:04;;;;;;;16.97;12.77;;;;;;;;;;4954923;28;20230;-80
2023/02/21 08:36:32;;;;;;;17.63;14.13;;;;;;;;;;4954882;28;20226;-79
2023/02/21 08:38:59;;;;;;;17.87;13.60;;;;;;;;;;4954574;28;20234;-80
2023/02/21 08:41:26;;;;;;;16.87;12.77;;;;;;;;;;4966995;28;20739;-79
2023/02/21 08:43:53;;;;;;;15.17;12.53;;;;;;;;;;4973608;28;20643;-79
2023/02/21 08:46:20;;;;;;;16.50;12.80;;;;;;;;;;4973805;28;20334;-79
2023/02/21 08:48:49;;;;;;;16.77;11.70;;;;;;;;;;4974058;28;20218;-80
2023/02/21 08:51:16;;;;;;;13.60;11.23;;;;;;;;;;4973661;28;20310;-80
2023/02/21 08:53:44;;;;;;;19.53;12.60;;;;;;;;;;4973638;28;20228;-80
2023/02/21 08:56:11;;;;;;;15.67;11.50;;;;;;;;;;4973686;28;20202;-80
2023/02/21 08:58:38;;;;;;;15.40;11.83;;;;;;;;;;4973765;28;20201;-80
2023/02/21 09:01:06;;;;;;;13.53;10.57;;;;;;;;;;4973449;28;20706;-80
2023/02/21 09:03:34;;;;;;;13.57;11.13;;;;;;;;;;4973252;28;20760;-80
2023/02/21 09:06:03;;;;;;;14.07;12.57;;;;;;;;;;4973436;28;20214;-80
2023/02/21 09:08:31;;;;;;;21.17;17.83;;;;;;;;;;4973464;28;20202;-80
2023/02/21 09:10:59;;;;;;;24.63;19.90;;;;;;;;;;4973585;28;20226;-80
2023/02/21 09:13:26;;;;;;;20.27;16.07;;;;;;;;;;4954532;28;20211;-80
2023/02/21 09:15:53;;;;;;;13.83;12.03;;;;;;;;;;4953833;28;20288;-80
2023/02/21 09:18:20;;;;;;;15.67;12.20;;;;;;;;;;4953939;28;20771;-81
2023/02/21 09:20:51;;;;;;;13.73;11.03;;;;;;;;;;4954079;28;20235;-80
2023/02/21 09:23:20;;;;;;;17.37;13.97;;;;;;;;;;4953554;29;20211;-80
2023/02/21 09:25:47;;;;;;;17.87;13.77;;;;;;;;;;4954018;29;20258;-81
2023/02/21 09:28:14;;;;;;;16.30;14.00;;;;;;;;;;4953692;29;20231;-81
2023/02/21 09:30:41;;;;;;;13.30;10.63;;;;;;;;;;4953642;28;20688;-80
2023/02/21 09:33:09;;;;;;;11.87;10.67;;;;;;;;;;4953591;28;20286;-80
2023/02/21 09:35:36;;;;;;;13.93;10.47;;;;;;;;;;4954049;29;20334;-81
2023/02/21 09:38:05;;;;;;;14.40;11.87;;;;;;;;;;4953521;28;20703;-81
2023/02/21 09:40:36;;;;;;;14.87;11.83;;;;;;;;;;4953277;28;20200;-81
2023/02/21 09:43:04;;;;;;;14.47;11.77;;;;;;;;;;4953351;28;20294;-80
2023/02/21 09:45:33;;;;;;;14.73;12.23;;;;;;;;;;4953788;28;20227;-81
2023/02/21 09:48:01;;;;;;;13.13;10.77;;;;;;;;;;4953721;29;20289;-81
2023/02/21 09:50:30;;;;;;;14.50;10.40;;;;;;;;;;4953725;29;20708;-80
2023/02/21 09:52:57;;;;;;;12.87;9.73;;;;;;;;;;4953384;29;20210;-81
2023/02/21 09:55:28;;;;;;;12.17;10.07;;;;;;;;;;4953164;28;20330;-81
2023/02/21 09:57:57;;;;;;;11.27;9.30;;;;;;;;;;4953179;29;20207;-80
2023/02/21 10:00:25;;;;;;;12.40;9.63;;;;;;;;;;4953242;29;20235;-81
2023/02/21 10:02:57;;;;;;;11.17;9.97;;;;;;;;;;4953379;29;20227;-81
2023/02/21 10:05:31;;;;;;;12.83;9.83;;;;;;;;;;4952848;28;20302;-82
2023/02/21 10:08:01;;;;;;;14.60;9.07;;;;;;;;;;4953180;28;20686;-82
2023/02/21 10:10:31;;;;;;;16.10;12.03;;;;;;;;;;4953328;28;20738;-81
2023/02/21 10:13:04;;;;;;;19.00;14.13;;;;;;;;;;4952948;28;20230;-82
2023/02/21 10:15:43;;;;;;;14.20;11.63;;;;;;;;;;4955082;28;20258;-81
2023/02/21 10:18:17;;;;;;;14.53;10.37;;;;;;;;;;4957447;29;20203;-81
2023/02/21 10:20:47;;;;;;;17.37;13.43;;;;;;;;;;4957000;28;20680;-82
2023/02/21 10:23:16;;;;;;;19.80;13.43;;;;;;;;;;4957253;29;20230;-81
2023/02/21 10:25:44;;;;;;;17.50;11.70;;;;;;;;;;4956914;28;20241;-81
2023/02/21 10:28:17;;;;;;;10.93;9.30;;;;;;;;;;4957429;29;20233;-81
2023/02/21 10:30:44;;;;;;;14.40;11.00;;;;;;;;;;4957221;28;20231;-81
2023/02/21 10:33:11;;;;;;;11.10;8.87;;;;;;;;;;4957323;29;20223;-81
2023/02/21 10:35:39;;;;;;;9.73;8.23;;;;;;;;;;4956635;29;20689;-82
2023/02/21 10:38:08;;;;;;;14.77;13.27;;;;;;;;;;4956997;28;20610;-82
2023/02/21 10:40:36;;;;;;;12.53;9.70;;;;;;;;;;4956341;28;20736;-82
2023/02/21 10:43:07;;;;;;;10.50;9.40;;;;;;;;;;4956803;29;20295;-82
2023/02/21 10:45:39;;;;;;;17.07;14.63;;;;;;;;;;4956501;29;20302;-82
2023/02/21 10:48:07;;;;;;;10.90;9.80;;;;;;;;;;4957160;29;20740;-82
2023/02/21 10:50:42;;;;;;;10.23;8.63;;;;;;;;;;4956752;28;20273;-82
2023/02/21 10:53:10;;;;;;;12.00;10.40;;;;;;;;;;4956921;29;20282;-82
2023/02/21 10:55:37;;;;;;;12.37;8.90;;;;;;;;;;4955976;29;20811;-82
2023/02/21 10:58:09;;;;;;;10.27;8.23;;;;;;;;;;4956745;29;20234;-83
2023/02/21 11:00:38;;;;;;;12.10;9.17;;;;;;;;;;4956544;29;20242;-82
2023/02/21 11:03:07;;;;;;;9.53;7.77;;;;;;;;;;4956247;28;20629;-82
2023/02/21 11:05:35;;;;;;;11.83;8.07;;;;;;;;;;4956220;29;20636;-82
2023/02/21 11:08:06;;;;;;;9.77;8.07;;;;;;;;;;4957167;29;20238;-83
2023/02/21 11:10:34;;;;;;;10.90;9.80;;;;;;;;;;4956001;29;20261;-82
2023/02/21 11:13:03;;;;;;;11.17;9.07;;;;;;;;;;4956121;28;20203;-82
2023/02/21 11:15:30;;;;;;;11.40;9.00;;;;;;;;;;4956603;29;20294;-82
2023/02/21 11:18:06;;;;;;;9.00;8.00;;;;;;;;;;4956453;29;20230;-83
2023/02/21 11:20:34;;;;;;;19.10;15.40;;;;;;;;;;4956126;29;20669;-82
2023/02/21 11:23:01;;;;;;;11.90;8.90;;;;;;;;;;4956132;29;20294;-82
2023/02/21 11:25:30;;;;;;;12.83;9.00;;;;;;;;;;4956027;28;20199;-83
2023/02/21 11:28:03;;;;;;;10.00;8.03;;;;;;;;;;4955738;28;20284;-83
2023/02/21 11:30:31;;;;;;;16.60;13.20;;;;;;;;;;4956118;29;20226;-83
2023/02/21 11:32:59;;;;;;;11.97;9.80;;;;;;;;;;4955942;29;20199;-82
2023/02/21 11:35:29;;;;;;;10.70;9.23;;;;;;;;;;4955634;28;20704;-83
2023/02/21 11:37:58;;;;;;;11.60;9.20;;;;;;;;;;4956046;28;20196;-83
2023/02/21 11:40:31;;;;;;;10.20;8.47;;;;;;;;;;4955813;28;20660;-83
2023/02/21 11:43:19;;;;;;;10.83;9.73;;;;;;;;;;4955661;29;20567;-82
2023/02/21 11:45:49;;;;;;;13.47;9.73;;;;;;;;;;4955478;28;20262;-83
2023/02/21 11:48:18;;;;;;;11.80;9.23;;;;;;;;;;4955888;28;20219;-83
2023/02/21 11:50:50;;;;;;;13.97;9.10;;;;;;;;;;4955875;29;20195;-82
2023/02/21 11:53:21;;;;;;;10.43;8.60;;;;;;;;;;4955411;29;20199;-81
2023/02/21 11:55:52;;;;;;;10.27;8.73;;;;;;;;;;4955487;28;20286;-83
2023/02/21 11:58:24;;;;;;;10.97;9.73;;;;;;;;;;4955454;29;20231;-84
2023/02/21 12:01:01;;;;;;;13.43;12.00;;;;;;;;;;4955363;29;20684;-83
2023/02/21 12:03:38;;;;;;;13.10;9.90;;;;;;;;;;4955263;29;20203;-83
2023/02/21 12:06:11;;;;;;;9.80;7.97;;;;;;;;;;4955885;28;20202;-83
2023/02/21 12:08:41;;;;;;;10.43;8.67;;;;;;;;;;4954868;29;20203;-83
2023/02/21 12:11:18;;;;;;;12.40;8.67;;;;;;;;;;4956367;28;20250;-83
2023/02/21 12:13:49;;;;;;;10.80;8.67;;;;;;;;;;4955620;28;20202;-84
2023/02/21 12:16:21;;;;;;;10.43;9.07;;;;;;;;;;4954934;28;20323;-83
2023/02/21 12:18:57;;;;;;;11.07;9.27;;;;;;;;;;4955312;28;20289;-82
2023/02/21 12:21:36;;;;;;;10.30;9.13;;;;;;;;;;4954466;28;20827;-83
2023/02/21 12:24:08;;;;;;;10.80;8.37;;;;;;;;;;4937820;29;20195;-83
2023/02/21 12:26:45;;;;;;;12.17;8.90;;;;;;;;;;4955127;28;20234;-83
2023/02/21 12:29:20;;;;;;;11.13;9.10;;;;;;;;;;4954701;28;20740;-83
2023/02/21 12:31:56;;;;;;;11.93;10.00;;;;;;;;;;4954861;29;20289;-84
2023/02/21 12:34:30;;;;;;;10.40;8.83;;;;;;;;;;4954538;29;20660;-83
2023/02/21 12:37:24;;;;;;;11.27;8.90;;;;;;;;;;4954484;28;20778;-83
2023/02/21 12:39:59;;;;;;;14.23;12.30;;;;;;;;;;4876644;29;20665;-83
2023/02/21 12:42:34;;;;;;;19.27;16.37;;;;;;;;;;4876792;29;20229;-81
2023/02/21 12:45:08;;;;;;;12.87;11.07;;;;;;;;;;4876583;29;20205;-81
2023/02/21 12:47:38;;;;;;;13.63;12.17;;;;;;;;;;4876572;29;20272;-83
2023/02/21 12:50:09;;;;;;;9.87;8.87;;;;;;;;;;4876459;29;20202;-83
2023/02/21 12:52:40;;;;;;;16.63;13.00;;;;;;;;;;4861769;29;20723;-83
2023/02/21 12:55:14;;;;;;;13.67;11.10;;;;;;;;;;4876475;29;20672;-83
2023/02/21 12:57:50;;;;;;;14.33;12.23;;;;;;;;;;4876450;29;20225;-81
2023/02/21 13:00:21;;;;;;;12.60;11.07;;;;;;;;;;4876253;29;20297;-81
2023/02/21 13:02:54;;;;;;;10.53;8.63;;;;;;;;;;4876277;29;20284;-83
2023/02/21 13:05:23;;;;;;;9.67;8.23;;;;;;;;;;4876201;29;20233;-83
2023/02/21 13:07:53;;;;;;;8.73;7.73;;;;;;;;;;4876489;29;20248;-84
2023/02/21 13:10:23;;;;;;;11.83;8.13;;;;;;;;;;4876421;29;20236;-84
2023/02/21 13:12:55;;;;;;;11.33;8.63;;;;;;;;;;4876363;29;20213;-84
2023/02/21 13:15:24;;;;;;;14.60;11.80;;;;;;;;;;4906296;29;20203;-84
2023/02/21 13:17:56;;;;;;;11.77;8.93;;;;;;;;;;4954323;28;20258;-84
2023/02/21 13:20:26;;;;;;;9.88;7.68;;;;;;;;;;4953773;29;20199;-84
2023/02/21 13:26:03;;;;;;;8.82;7.80;;;;;;;;;;4953854;28;20194;-84
2023/02/21 13:28:35;;;;;;;20.90;19.00;;;;;;;;;;4953900;28;20206;-84
2023/02/21 13:31:03;;;;;;;13.50;11.88;;;;;;;;;;4953866;29;20211;-84
2023/02/21 13:33:37;;;;;;;9.35;8.00;;;;;;;;;;4954160;29;20206;-84
2023/02/21 13:36:21;;;;;;;19.55;17.60;;;;;;;;;;4954305;29;20786;-84
2023/02/21 13:38:57;;;;;;;12.40;9.63;;;;;;;;;;4954392;29;20683;-84
2023/02/21 13:41:27;;;;;;;11.45;9.63;;;;;;;;;;4954446;29;20207;-84
2023/02/21 13:43:55;;;;;;;14.43;12.38;;;;;;;;;;4953686;29;20230;-84
2023/02/21 13:46:46;;;;;;;10.75;8.98;;;;;;;;;;4954046;29;20235;-84
2023/02/21 13:49:38;;;;;;;10.13;9.15;;;;;;;;;;4953089;28;20298;-84
2023/02/21 13:52:16;;;;;;;11.30;9.10;;;;;;;;;;4934679;29;20234;-84
2023/02/21 13:54:58;;;;;;;9.52;8.52;;;;;;;;;;4953932;29;20226;-84
2023/02/21 13:57:36;;;;;;;9.57;8.35;;;;;;;;;;4952886;28;20735;-85
2023/02/21 14:00:38;;;;;;;10.50;8.70;;;;;;;;;;4953737;28;20223;-83
2023/02/21 14:03:27;;;;;;;9.90;8.23;;;;;;;;;;4952738;28;20712;-85
2023/02/21 14:06:13;;;;;;;10.60;8.50;;;;;;;;;;4953857;28;20203;-84
2023/02/21 14:08:41;;;;;;;10.97;9.23;;;;;;;;;;4953374;29;20261;-84
2023/02/21 14:11:14;;;;;;;11.07;9.00;;;;;;;;;;4953760;28;20258;-84
2023/02/21 14:13:46;;;;;;;12.30;9.53;;;;;;;;;;4972802;28;20202;-84
2023/02/21 14:16:21;;;;;;;11.17;8.80;;;;;;;;;;4972824;28;20300;-84
2023/02/21 14:18:50;;;;;;;12.97;9.70;;;;;;;;;;4972293;28;20194;-84
2023/02/21 14:21:22;;;;;;;11.57;8.90;;;;;;;;;;4972923;28;20280;-84
2023/02/21 14:23:51;;;;;;;11.77;8.73;;;;;;;;;;4972981;28;20663;-84
2023/02/21 14:26:35;;;;;;;12.30;8.57;;;;;;;;;;4972724;28;20278;-83
2023/02/21 14:29:13;;;;;;;13.47;9.03;;;;;;;;;;4972495;28;20710;-84
2023/02/21 14:31:47;;;;;;;11.97;10.00;;;;;;;;;;4972211;28;20210;-84
2023/02/21 14:34:15;;;;;;;11.30;9.37;;;;;;;;;;4972839;28;20215;-84
2023/02/21 14:36:43;;;;;;;10.33;8.77;;;;;;;;;;4972334;28;20265;-84
2023/02/21 14:39:10;;;;;;;14.30;11.17;;;;;;;;;;4972211;28;20202;-83
2023/02/21 14:41:40;;;;;;;19.17;14.37;;;;;;;;;;4972546;28;20238;-85
2023/02/21 14:44:15;;;;;;;15.20;11.23;;;;;;;;;;4972439;28;20742;-84
2023/02/21 14:46:52;;;;;;;12.70;9.73;;;;;;;;;;4971896;28;20240;-85
2023/02/21 14:49:36;;;;;;;12.70;9.83;;;;;;;;;;4974570;28;20257;-84
2023/02/21 14:52:15;;;;;;;12.50;10.03;;;;;;;;;;4975505;28;20201;-84
2023/02/21 14:55:01;;;;;;;12.13;10.50;;;;;;;;;;4972128;28;20257;-84
2023/02/21 14:57:39;;;;;;;16.13;12.03;;;;;;;;;;4971922;28;20230;-84
2023/02/21 15:00:21;;;;;;;13.93;11.97;;;;;;;;;;4972344;28;20628;-84
2023/02/21 15:02:51;;;;;;;16.27;12.10;;;;;;;;;;4975755;28;20249;-85
2023/02/21 15:05:21;;;;;;;13.80;12.30;;;;;;;;;;4976233;28;20199;-84
2023/02/21 15:07:54;;;;;;;14.90;11.93;;;;;;;;;;4976663;28;20203;-84
2023/02/21 15:10:24;;;;;;;14.70;12.50;;;;;;;;;;4976008;28;20234;-84
2023/02/21 15:12:52;;;;;;;16.57;13.33;;;;;;;;;;4961966;28;20207;-84
2023/02/21 15:15:22;;;;;;;16.33;12.50;;;;;;;;;;4956321;28;20573;-84
2023/02/21 15:18:01;;;;;;;17.33;12.37;;;;;;;;;;4956215;29;20235;-84
2023/02/21 15:20:30;;;;;;;15.00;11.07;;;;;;;;;;4956302;29;20258;-84
2023/02/21 15:22:57;;;;;;;18.93;12.00;;;;;;;;;;4955689;28;20615;-84
2023/02/21 15:25:25;;;;;;;16.73;11.97;;;;;;;;;;4956390;29;20195;-84
2023/02/21 15:28:02;;;;;;;17.50;14.20;;;;;;;;;;4956326;29;20234;-84
2023/02/21 15:30:39;;;;;;;16.60;14.20;;;;;;;;;;4955806;28;20199;-84
2023/02/21 15:33:08;;;;;;;19.13;13.57;;;;;;;;;;4955931;28;20202;-84
2023/02/21 15:35:37;;;;;;;16.00;13.57;;;;;;;;;;4956277;29;20204;-84
2023/02/21 15:38:06;;;;;;;17.00;14.03;;;;;;;;;;4955832;28;20231;-84
2023/02/21 15:40:33;;;;;;;16.47;13.70;;;;;;;;;;4956273;29;20206;-84
2023/02/21 15:43:02;;;;;;;19.00;14.60;;;;;;;;;;4955692;28;20230;-84
2023/02/21 15:45:30;;;;;;;22.90;16.10;;;;;;;;;;4955444;29;20599;-85
2023/02/21 15:47:59;;;;;;;16.77;13.70;;;;;;;;;;4955891;28;20267;-84
2023/02/21 15:50:30;;;;;;;20.53;15.07;;;;;;;;;;4955705;29;20200;-84
2023/02/21 15:53:10;;;;;;;38.17;29.87;;;;;;;;;;4955802;29;20448;-84
2023/02/21 15:55:38;;;;;;;32.80;25.20;;;;;;;;;;4956189;29;20235;-84
2023/02/21 15:58:13;;;;;;;17.13;14.77;;;;;;;;;;4955537;29;20270;-84
2023/02/21 16:00:42;;;;;;;19.57;14.33;;;;;;;;;;4955198;28;20244;-84
2023/02/21 16:03:30;;;;;;;20.13;15.00;;;;;;;;;;4955829;28;20639;-84
2023/02/21 16:06:10;;;;;;;19.77;14.07;;;;;;;;;;4956285;29;20711;-84
2023/02/21 16:08:39;;;;;;;17.03;14.30;;;;;;;;;;4955393;28;20203;-84
2023/02/21 16:11:06;;;;;;;15.70;13.63;;;;;;;;;;4955319;28;20207;-83
2023/02/21 16:13:36;;;;;;;15.90;13.13;;;;;;;;;;4954043;28;20243;-84
2023/02/21 16:16:03;;;;;;;16.93;14.13;;;;;;;;;;4955033;29;20237;-84
2023/02/21 16:18:32;;;;;;;16.80;13.93;;;;;;;;;;4955620;28;20619;-84
2023/02/21 16:21:00;;;;;;;15.73;13.67;;;;;;;;;;4955362;28;20215;-85
2023/02/21 16:23:33;;;;;;;18.73;14.27;;;;;;;;;;4955060;29;20230;-84
2023/02/21 16:26:01;;;;;;;21.47;15.57;;;;;;;;;;4954999;29;20289;-83
2023/02/21 16:28:28;;;;;;;19.97;16.10;;;;;;;;;;4955058;29;20226;-84
2023/02/21 16:30:57;;;;;;;18.60;15.47;;;;;;;;;;4955273;28;20226;-83
2023/02/21 16:33:25;;;;;;;19.80;15.17;;;;;;;;;;4954905;28;20211;-81
2023/02/21 16:35:53;;;;;;;25.53;19.07;;;;;;;;;;4955398;29;20258;-82
2023/02/21 16:38:23;;;;;;;58.70;35.97;;;;;;;;;;4954638;29;20262;-84
2023/02/21 16:40:50;;;;;;;38.10;28.03;;;;;;;;;;4955264;29;20273;-83
2023/02/21 16:43:19;;;;;;;24.90;19.20;;;;;;;;;;4955233;29;20560;-84
2023/02/21 16:45:48;;;;;;;18.00;15.23;;;;;;;;;;4955389;28;20230;-84
2023/02/21 16:48:19;;;;;;;18.73;15.00;;;;;;;;;;4955319;28;20687;-84
2023/02/21 16:50:47;;;;;;;18.00;15.17;;;;;;;;;;4955406;29;20219;-85
2023/02/21 16:53:16;;;;;;;21.90;15.70;;;;;;;;;;4954619;28;20225;-84
2023/02/21 16:55:44;;;;;;;17.93;14.80;;;;;;;;;;4954831;28;20657;-84